Time;durP1;ratioP1;P1;durP2;ratioP2;P2;SDS_P1;SDS_P2;PMS_P1;PMS_P2;Temp;Humidity;BMP_temperature;BMP_pressure;BME280_temperature;BME280_humidity;BME280_pressure;Samples;Min_cycle;Max_cycle;Signal;HPM_P1;HPM_P2
2023/03/27 00:01:00;;;;;;;5.47;1.40;;;2.60;99.90;;;;;;5050249;28;20104;-67
2023/03/27 00:03:27;;;;;;;8.93;1.40;;;2.60;99.90;;;;;;5049392;28;20076;-67
2023/03/27 00:06:05;;;;;;;11.45;1.48;;;2.60;99.90;;;;;;5049970;28;20056;-67
2023/03/27 00:08:32;;;;;;;11.55;1.75;;;2.60;99.90;;;;;;5049514;28;20105;-67
2023/03/27 00:10:59;;;;;;;6.53;1.20;;;2.60;99.90;;;;;;5050482;28;20077;-67
2023/03/27 00:13:25;;;;;;;9.15;2.05;;;2.60;99.90;;;;;;5048701;28;20048;-67
2023/03/27 00:15:57;;;;;;;9.73;1.40;;;2.60;99.90;;;;;;5049127;28;20123;-67
2023/03/27 00:18:23;;;;;;;6.97;1.20;;;2.70;99.90;;;;;;5085664;28;20044;-67
2023/03/27 00:20:50;;;;;;;8.57;1.50;;;2.70;99.90;;;;;;5054027;28;20095;-67
2023/03/27 00:23:18;;;;;;;6.50;1.67;;;2.70;99.90;;;;;;5054321;28;20091;-67
2023/03/27 00:25:48;;;;;;;11.55;2.08;;;2.70;99.90;;;;;;5054777;28;20452;-67
2023/03/27 00:28:15;;;;;;;7.65;1.55;;;2.60;99.90;;;;;;5086454;28;20397;-67
2023/03/27 00:30:42;;;;;;;6.80;1.42;;;2.60;99.90;;;;;;5053434;28;20051;-66
2023/03/27 00:33:38;;;;;;;7.25;1.45;;;2.50;99.90;;;;;;5053110;28;20039;-67
2023/03/27 00:36:14;;;;;;;11.50;2.45;;;2.50;99.90;;;;;;5086735;28;20045;-67
2023/03/27 00:38:46;;;;;;;6.70;2.35;;;2.40;99.90;;;;;;5054349;28;20036;-67
2023/03/27 00:41:12;;;;;;;4.68;1.25;;;2.30;99.90;;;;;;5053774;28;20452;-67
2023/03/27 00:43:42;;;;;;;5.18;1.40;;;2.30;99.90;;;;;;5052956;28;20073;-67
2023/03/27 00:46:14;;;;;;;4.68;1.30;;;2.20;99.90;;;;;;5052776;28;20048;-67
2023/03/27 00:48:45;;;;;;;5.22;1.20;;;2.10;99.90;;;;;;5052295;28;20045;-67
2023/03/27 00:51:11;;;;;;;5.80;1.48;;;2.10;99.90;;;;;;5052874;28;20551;-67
2023/03/27 00:53:38;;;;;;;9.52;1.52;;;2.10;99.90;;;;;;5053956;28;20037;-67
2023/03/27 00:56:06;;;;;;;6.28;1.77;;;2.10;99.90;;;;;;5053436;28;20044;-67
2023/03/27 00:58:43;;;;;;;7.38;1.38;;;2.10;99.90;;;;;;5086193;28;20044;-67
2023/03/27 01:01:12;;;;;;;4.55;1.10;;;2.10;99.90;;;;;;5052703;28;20044;-67
2023/03/27 01:03:39;;;;;;;7.95;1.58;;;2.10;99.90;;;;;;5053373;28;20045;-67
2023/03/27 01:06:06;;;;;;;5.22;1.50;;;2.10;99.90;;;;;;5053827;28;20049;-67
2023/03/27 01:08:35;;;;;;;4.57;1.33;;;2.10;99.90;;;;;;5052483;28;20071;-67
2023/03/27 01:11:04;;;;;;;4.85;1.00;;;2.10;99.90;;;;;;5086003;28;20489;-67
2023/03/27 01:13:45;;;;;;;6.32;1.63;;;2.10;99.90;;;;;;5053740;28;20482;-67
2023/03/27 01:16:20;;;;;;;11.23;2.75;;;2.10;99.90;;;;;;5053139;28;20052;-67
2023/03/27 01:18:57;;;;;;;8.43;1.75;;;2.10;99.90;;;;;;5053727;28;20052;-67
2023/03/27 01:21:26;;;;;;;7.38;1.25;;;2.10;99.90;;;;;;5053658;28;20075;-67
2023/03/27 01:24:37;;;;;;;8.98;1.73;;;2.10;99.90;;;;;;5051446;28;20067;-67
2023/03/27 01:27:41;;;;;;;3.60;1.40;;;2.10;99.90;;;;;;5035260;28;20060;-67
2023/03/27 01:30:32;;;;;;;10.32;1.30;;;2.10;99.90;;;;;;5084553;28;20043;-67
2023/03/27 01:33:24;;;;;;;5.43;1.30;;;2.10;99.90;;;;;;5052305;28;20045;-67
2023/03/27 01:35:53;;;;;;;8.45;1.17;;;2.10;99.90;;;;;;5052289;28;20048;-67
2023/03/27 01:38:38;;;;;;;5.32;1.10;;;2.10;99.90;;;;;;5051234;28;20482;-67
2023/03/27 01:41:33;;;;;;;6.57;1.23;;;2.10;99.90;;;;;;5053322;28;20499;-67
2023/03/27 01:44:07;;;;;;;5.35;1.02;;;2.10;99.90;;;;;;5051266;28;20550;-67
2023/03/27 01:46:40;;;;;;;3.65;1.08;;;2.10;99.90;;;;;;5051710;28;20055;-67
2023/03/27 01:49:21;;;;;;;4.10;1.05;;;2.10;99.90;;;;;;5085596;28;20122;-67
2023/03/27 01:51:53;;;;;;;6.40;1.63;;;2.10;99.90;;;;;;5034488;28;20080;-67
2023/03/27 01:54:27;;;;;;;7.95;1.42;;;2.10;99.90;;;;;;5051734;28;20041;-67
2023/03/27 01:57:16;;;;;;;3.65;1.38;;;2.10;99.90;;;;;;5085137;28;20076;-67
2023/03/27 01:59:46;;;;;;;7.43;1.20;;;2.00;99.90;;;;;;5084819;28;20087;-67
2023/03/27 02:02:28;;;;;;;5.68;1.30;;;1.90;99.90;;;;;;5052693;28;20102;-67
2023/03/27 02:05:03;;;;;;;4.07;1.45;;;1.80;99.90;;;;;;5050854;28;20102;-67
2023/03/27 02:07:39;;;;;;;6.07;1.80;;;1.70;99.90;;;;;;5051282;28;20517;-67
2023/03/27 02:10:10;;;;;;;8.23;2.00;;;1.70;99.90;;;;;;5052836;28;20044;-67
2023/03/27 02:12:51;;;;;;;5.30;1.83;;;1.70;99.90;;;;;;5051960;28;20469;-67
2023/03/27 02:15:20;;;;;;;7.85;1.30;;;1.80;99.90;;;;;;5052678;28;20040;-66
2023/03/27 02:17:55;;;;;;;8.38;1.98;;;1.90;99.90;;;;;;5085008;28;20492;-67
2023/03/27 02:20:22;;;;;;;4.80;1.60;;;1.90;99.90;;;;;;5051844;28;20041;-68
2023/03/27 02:22:49;;;;;;;8.93;1.52;;;2.10;99.90;;;;;;5084480;28;20057;-66
2023/03/27 02:25:25;;;;;;;2.78;1.15;;;2.20;99.90;;;;;;5084732;28;20084;-66
2023/03/27 02:28:14;;;;;;;2.15;0.63;;;2.20;99.90;;;;;;5084008;28;20044;-66
2023/03/27 02:30:58;;;;;;;5.97;1.35;;;2.20;99.90;;;;;;5051008;28;20120;-66
2023/03/27 02:33:45;;;;;;;3.83;1.00;;;2.20;99.90;;;;;;5051765;28;20037;-66
2023/03/27 02:36:30;;;;;;;4.40;1.00;;;2.20;99.90;;;;;;5050867;28;20045;-66
2023/03/27 02:39:39;;;;;;;4.90;1.08;;;2.20;99.90;;;;;;5051103;28;20059;-66
2023/03/27 02:42:16;;;;;;;5.78;1.33;;;2.20;99.90;;;;;;5050677;28;20084;-66
2023/03/27 02:45:12;;;;;;;4.93;1.40;;;2.20;99.90;;;;;;5050958;28;20044;-66
2023/03/27 02:48:11;;;;;;;10.30;3.15;;;2.20;99.90;;;;;;5050674;28;20060;-66
2023/03/27 02:50:44;;;;;;;5.28;1.30;;;2.20;99.90;;;;;;5050644;28;20086;-66
2023/03/27 02:53:15;;;;;;;3.70;1.35;;;2.20;99.90;;;;;;5051765;28;20048;-66
2023/03/27 02:55:50;;;;;;;7.68;1.15;;;2.20;99.90;;;;;;5051225;28;20037;-66
2023/03/27 02:58:23;;;;;;;5.68;1.48;;;2.10;99.90;;;;;;5084002;28;20078;-66
2023/03/27 03:00:50;;;;;;;6.68;1.33;;;2.10;99.90;;;;;;5049832;28;20037;-66
2023/03/27 03:03:37;;;;;;;7.00;1.25;;;2.10;99.90;;;;;;5050550;28;20056;-66
2023/03/27 03:06:05;;;;;;;5.00;1.17;;;2.10;99.90;;;;;;5051514;28;20045;-67
2023/03/27 03:08:37;;;;;;;6.00;1.13;;;2.20;99.90;;;;;;5049596;28;20048;-66
2023/03/27 03:11:09;;;;;;;4.78;0.80;;;2.40;99.90;;;;;;5050188;28;20033;-66
2023/03/27 03:13:35;;;;;;;6.43;1.15;;;2.50;99.90;;;;;;5033725;28;20485;-66
2023/03/27 03:16:01;;;;;;;5.78;1.77;;;2.60;99.90;;;;;;5050749;28;20124;-65
2023/03/27 03:18:27;;;;;;;5.47;1.75;;;2.60;99.90;;;;;;5051273;28;20508;-67
2023/03/27 03:20:54;;;;;;;5.20;1.33;;;2.60;99.90;;;;;;5050169;28;20045;-66
2023/03/27 03:23:21;;;;;;;6.10;1.75;;;2.60;99.90;;;;;;5050545;28;20136;-66
2023/03/27 03:25:51;;;;;;;7.32;1.25;;;2.60;99.90;;;;;;5049835;28;20052;-66
2023/03/27 03:28:18;;;;;;;11.73;1.75;;;2.50;99.90;;;;;;5083402;28;20045;-66
2023/03/27 03:30:49;;;;;;;7.85;2.28;;;2.40;99.90;;;;;;5049241;28;20107;-66
2023/03/27 03:33:16;;;;;;;5.32;1.55;;;2.30;99.90;;;;;;5050050;28;20041;-66
2023/03/27 03:35:45;;;;;;;10.80;1.98;;;2.20;99.90;;;;;;5050623;28;20119;-66
2023/03/27 03:38:11;;;;;;;5.38;1.25;;;2.20;99.90;;;;;;5049699;28;20052;-66
2023/03/27 03:40:37;;;;;;;4.50;1.00;;;2.10;99.90;;;;;;5049676;28;20041;-66
2023/03/27 03:43:03;;;;;;;4.20;1.55;;;2.00;99.90;;;;;;5049098;28;20063;-66
2023/03/27 03:45:28;;;;;;;8.10;1.20;;;2.00;99.90;;;;;;5050898;28;20037;-66
2023/03/27 03:47:54;;;;;;;7.03;2.25;;;1.90;99.90;;;;;;5032795;28;20052;-66
2023/03/27 03:50:20;;;;;;;7.05;1.67;;;1.90;99.90;;;;;;5049184;28;20441;-66
2023/03/27 03:52:46;;;;;;;5.35;1.50;;;1.90;99.90;;;;;;5050807;28;20547;-66
2023/03/27 03:55:12;;;;;;;4.28;1.50;;;1.90;99.90;;;;;;5050738;28;20378;-66
2023/03/27 03:57:38;;;;;;;6.30;1.50;;;1.90;99.90;;;;;;5048852;28;20040;-66
2023/03/27 04:00:07;;;;;;;6.07;1.60;;;1.90;99.90;;;;;;5050624;28;20056;-66
2023/03/27 04:02:33;;;;;;;4.50;1.40;;;1.90;99.90;;;;;;5083323;28;20045;-67
2023/03/27 04:05:00;;;;;;;7.35;2.17;;;1.90;99.90;;;;;;5050077;28;20044;-67
2023/03/27 04:07:30;;;;;;;8.00;1.73;;;1.80;99.90;;;;;;5032654;28;20045;-66
2023/03/27 04:09:58;;;;;;;7.25;2.22;;;1.80;99.90;;;;;;5049274;28;20041;-67
2023/03/27 04:12:25;;;;;;;9.57;2.63;;;1.80;99.90;;;;;;5049850;28;20051;-66
2023/03/27 04:14:54;;;;;;;11.40;2.88;;;1.90;99.90;;;;;;5050802;28;20025;-66
2023/03/27 04:17:22;;;;;;;5.78;1.85;;;2.00;99.90;;;;;;5082837;28;20136;-66
2023/03/27 04:19:48;;;;;;;4.30;1.58;;;2.00;99.90;;;;;;5049999;28;20083;-66
2023/03/27 04:22:18;;;;;;;8.27;1.83;;;2.00;99.90;;;;;;5049213;28;20055;-66
2023/03/27 04:24:43;;;;;;;8.55;1.35;;;2.00;99.90;;;;;;5082071;28;20110;-66
2023/03/27 04:27:11;;;;;;;18.35;3.13;;;2.00;99.90;;;;;;5049533;28;20045;-66
2023/03/27 04:29:41;;;;;;;7.88;2.80;;;2.00;99.90;;;;;;5050246;28;20382;-67
2023/03/27 04:32:08;;;;;;;5.38;1.50;;;2.00;99.90;;;;;;5048735;28;20378;-66
2023/03/27 04:34:39;;;;;;;6.93;1.80;;;1.90;99.90;;;;;;5049948;28;20536;-66
2023/03/27 04:37:05;;;;;;;12.30;3.78;;;1.90;99.90;;;;;;5049001;28;20048;-66
2023/03/27 04:39:38;;;;;;;4.63;1.58;;;1.80;99.90;;;;;;5049609;28;20091;-66
2023/03/27 04:42:05;;;;;;;8.70;2.05;;;1.70;99.90;;;;;;5050516;28;20057;-66
2023/03/27 04:44:30;;;;;;;9.65;1.70;;;1.70;99.90;;;;;;5050276;28;20398;-66
2023/03/27 04:47:00;;;;;;;8.05;1.77;;;1.70;99.90;;;;;;5048356;28;20048;-66
2023/03/27 04:49:27;;;;;;;7.22;1.65;;;1.70;99.90;;;;;;5032411;28;20117;-66
2023/03/27 04:51:52;;;;;;;7.68;1.75;;;1.70;99.90;;;;;;5048773;28;20567;-66
2023/03/27 04:54:18;;;;;;;10.15;1.90;;;1.70;99.90;;;;;;5048209;28;20083;-66
2023/03/27 04:56:45;;;;;;;7.18;1.55;;;1.70;99.90;;;;;;5048879;28;20087;-66
2023/03/27 04:59:11;;;;;;;7.32;1.63;;;1.80;99.90;;;;;;5032466;28;20044;-66
2023/03/27 05:01:37;;;;;;;4.75;1.38;;;1.80;99.90;;;;;;5049619;28;20060;-66
2023/03/27 05:04:02;;;;;;;6.10;2.20;;;1.80;99.90;;;;;;5034307;28;20413;-66
2023/03/27 05:06:28;;;;;;;7.93;2.58;;;1.80;99.90;;;;;;5052583;28;20049;-66
2023/03/27 05:08:54;;;;;;;11.90;2.00;;;1.80;99.90;;;;;;5051940;28;20037;-66
2023/03/27 05:11:20;;;;;;;9.55;3.00;;;1.80;99.90;;;;;;5053961;28;20033;-66
2023/03/27 05:13:45;;;;;;;6.80;2.55;;;1.80;99.90;;;;;;5053229;28;20390;-66
2023/03/27 05:16:11;;;;;;;5.63;1.75;;;1.70;99.90;;;;;;5052460;28;20127;-66
2023/03/27 05:18:37;;;;;;;5.82;1.63;;;1.70;99.90;;;;;;5052465;28;20044;-66
2023/03/27 05:21:04;;;;;;;5.97;1.83;;;1.70;99.90;;;;;;5053028;28;20102;-66
2023/03/27 05:23:30;;;;;;;8.32;2.20;;;1.70;99.90;;;;;;5053519;28;20053;-66
2023/03/27 05:25:56;;;;;;;13.85;1.85;;;1.80;99.90;;;;;;5052298;28;20049;-66
2023/03/27 05:28:22;;;;;;;11.98;1.80;;;1.80;99.90;;;;;;5051651;28;20045;-66
2023/03/27 05:30:48;;;;;;;11.45;2.72;;;1.90;99.90;;;;;;5053611;28;20182;-66
2023/03/27 05:33:15;;;;;;;9.13;2.60;;;1.90;99.90;;;;;;5052434;28;20140;-66
2023/03/27 05:35:45;;;;;;;8.23;1.83;;;2.00;99.90;;;;;;5051465;28;20112;-66
2023/03/27 05:38:11;;;;;;;8.63;1.65;;;2.00;99.90;;;;;;5052283;28;20041;-66
2023/03/27 05:40:38;;;;;;;5.85;1.20;;;2.00;99.90;;;;;;5053280;28;20045;-66
2023/03/27 05:43:04;;;;;;;5.82;1.60;;;2.00;99.90;;;;;;5051430;28;20048;-66
2023/03/27 05:45:30;;;;;;;7.65;1.92;;;2.00;99.90;;;;;;5051994;28;20045;-66
2023/03/27 05:47:58;;;;;;;7.78;1.20;;;2.00;99.90;;;;;;5035158;28;20127;-66
2023/03/27 05:50:28;;;;;;;3.97;1.77;;;2.00;99.90;;;;;;5052335;28;20548;-66
2023/03/27 05:53:00;;;;;;;9.35;1.48;;;2.00;99.90;;;;;;5052012;28;20064;-67
2023/03/27 05:55:26;;;;;;;2.78;1.00;;;2.10;99.90;;;;;;5051867;28;20041;-66
2023/03/27 05:57:52;;;;;;;3.47;1.02;;;2.10;99.90;;;;;;5050025;28;20045;-66
2023/03/27 06:00:24;;;;;;;4.57;1.85;;;2.10;99.90;;;;;;5050416;28;20048;-66
2023/03/27 06:02:53;;;;;;;8.88;1.23;;;2.20;99.90;;;;;;5050990;28;20121;-66
2023/03/27 06:05:20;;;;;;;7.82;1.50;;;2.30;99.90;;;;;;5051492;28;20037;-66
2023/03/27 06:07:46;;;;;;;7.13;1.90;;;2.30;99.90;;;;;;5050204;28;20048;-66
2023/03/27 06:10:16;;;;;;;6.80;1.13;;;2.30;99.90;;;;;;5049635;28;20512;-66
2023/03/27 06:12:43;;;;;;;;;;;2.40;99.90;;;;;;5050584;28;20508;-66
2023/03/27 06:15:10;;;;;;;5.70;1.48;;;2.40;99.90;;;;;;5082458;28;20385;-66
2023/03/27 06:17:39;;;;;;;3.50;1.17;;;2.40;99.90;;;;;;5049338;28;20045;-66
2023/03/27 06:20:13;;;;;;;7.82;1.38;;;2.50;99.90;;;;;;5033657;28;20040;-66
2023/03/27 06:22:48;;;;;;;6.97;1.42;;;2.50;99.90;;;;;;5049883;28;20057;-66
2023/03/27 06:25:14;;;;;;;7.68;1.48;;;2.70;99.90;;;;;;5049329;28;20503;-66
2023/03/27 06:27:42;;;;;;;4.28;1.00;;;3.00;99.90;;;;;;5049944;28;20135;-66
2023/03/27 06:30:10;;;;;;;4.35;1.20;;;3.40;99.90;;;;;;5033208;28;20045;-67
2023/03/27 06:32:36;;;;;;;6.82;1.20;;;3.80;99.90;;;;;;5044116;28;20053;-67
2023/03/27 06:35:02;;;;;;;7.15;1.17;;;4.20;99.90;;;;;;5049594;28;20056;-67
2023/03/27 06:37:32;;;;;;;4.50;1.13;;;4.60;99.90;;;;;;5049673;28;20053;-67
2023/03/27 06:39:59;;;;;;;6.97;1.08;;;4.90;99.90;;;;;;5051062;28;20047;-65
2023/03/27 06:42:25;;;;;;;6.70;1.10;;;5.20;99.90;;;;;;5049325;28;20045;-67
2023/03/27 06:44:50;;;;;;;2.90;0.98;;;5.30;99.90;;;;;;5048904;28;20115;-69
2023/03/27 06:47:16;;;;;;;7.75;1.20;;;5.50;99.90;;;;;;5049234;28;20049;-67
2023/03/27 06:49:46;;;;;;;5.78;1.08;;;5.50;99.90;;;;;;5050579;28;20045;-67
2023/03/27 06:52:13;;;;;;;5.82;1.05;;;5.50;99.90;;;;;;5036488;28;20049;-67
2023/03/27 06:54:39;;;;;;;5.63;1.30;;;5.50;99.90;;;;;;5030742;28;20445;-67
2023/03/27 06:57:05;;;;;;;6.70;1.10;;;5.60;99.90;;;;;;5048882;28;20049;-67
2023/03/27 06:59:31;;;;;;;5.75;1.10;;;5.70;99.90;;;;;;5047617;28;20048;-67
2023/03/27 07:01:56;;;;;;;7.15;1.50;;;5.70;99.90;;;;;;5049121;28;20081;-68
2023/03/27 07:04:22;;;;;;;10.00;1.20;;;5.80;99.90;;;;;;5049108;28;20073;-68
2023/03/27 07:06:49;;;;;;;6.60;1.50;;;5.80;99.90;;;;;;5049637;28;20120;-67
2023/03/27 07:09:15;;;;;;;6.63;1.45;;;5.70;99.90;;;;;;5049936;28;20045;-68
2023/03/27 07:11:40;;;;;;;5.63;1.55;;;5.60;99.90;;;;;;5048932;28;20163;-68
2023/03/27 07:14:06;;;;;;;4.88;1.30;;;5.50;99.90;;;;;;5048269;28;20051;-67
2023/03/27 07:16:32;;;;;;;6.13;1.38;;;5.40;99.90;;;;;;5048811;28;20037;-68
2023/03/27 07:18:58;;;;;;;5.80;1.02;;;5.30;99.90;;;;;;5050011;28;20041;-67
2023/03/27 07:21:24;;;;;;;4.78;1.10;;;5.30;99.90;;;;;;5049427;28;20124;-67
2023/03/27 07:23:50;;;;;;;14.38;1.80;;;5.20;99.90;;;;;;5032014;28;20386;-67
2023/03/27 07:26:15;;;;;;;5.07;1.10;;;5.30;99.90;;;;;;5047970;28;20055;-67
2023/03/27 07:28:43;;;;;;;5.03;1.25;;;5.30;99.90;;;;;;5046350;28;20048;-66
2023/03/27 07:31:10;;;;;;;3.58;1.05;;;5.30;99.90;;;;;;5049383;28;20124;-67
2023/03/27 07:33:37;;;;;;;5.32;1.90;;;5.30;99.90;;;;;;5049340;28;20040;-67
2023/03/27 07:36:06;;;;;;;8.70;0.98;;;5.40;99.90;;;;;;5049236;28;20123;-67
2023/03/27 07:38:33;;;;;;;7.20;0.90;;;5.50;99.90;;;;;;5049806;28;20120;-66
2023/03/27 07:41:05;;;;;;;10.23;1.67;;;5.70;99.90;;;;;;5048814;28;20036;-66
2023/03/27 07:43:34;;;;;;;5.80;1.00;;;5.80;99.90;;;;;;5048339;28;20091;-66
2023/03/27 07:46:02;;;;;;;6.07;1.10;;;5.80;99.90;;;;;;5050888;28;20083;-66
2023/03/27 07:48:28;;;;;;;9.02;1.42;;;5.60;99.90;;;;;;5048612;28;20079;-66
2023/03/27 07:51:01;;;;;;;7.32;1.13;;;5.30;99.90;;;;;;5048175;28;20044;-66
2023/03/27 07:53:28;;;;;;;5.78;0.93;;;5.10;99.90;;;;;;5048349;28;20052;-66
2023/03/27 07:55:57;;;;;;;6.13;0.98;;;5.10;99.90;;;;;;5047699;28;20128;-66
2023/03/27 07:58:23;;;;;;;6.97;1.23;;;5.20;99.90;;;;;;5048032;28;20115;-67
2023/03/27 08:00:51;;;;;;;3.30;1.10;;;5.40;99.90;;;;;;5049534;28;20120;-67
2023/03/27 08:03:19;;;;;;;7.72;1.15;;;5.60;99.90;;;;;;5049041;28;20391;-66
2023/03/27 08:05:52;;;;;;;4.82;1.02;;;5.80;99.90;;;;;;5049350;28;20037;-67
2023/03/27 08:08:18;;;;;;;4.68;1.08;;;6.10;99.90;;;;;;5049618;28;20067;-66
2023/03/27 08:10:43;;;;;;;5.68;1.52;;;6.30;99.90;;;;;;5048864;28;20045;-67
2023/03/27 08:13:11;;;;;;;5.30;1.70;;;6.60;99.90;;;;;;5048075;28;20041;-67
2023/03/27 08:15:37;;;;;;;5.43;1.55;;;6.90;99.90;;;;;;5047780;28;20450;-67
2023/03/27 08:18:03;;;;;;;4.63;1.08;;;7.10;99.90;;;;;;5048179;28;20037;-67
2023/03/27 08:20:29;;;;;;;2.80;0.90;;;7.10;99.90;;;;;;5048077;28;20123;-66
2023/03/27 08:22:55;;;;;;;1.80;0.40;;;7.40;99.90;;;;;;5048461;28;20501;-66
2023/03/27 08:25:21;;;;;;;3.90;0.73;;;7.80;99.90;;;;;;5049301;28;20172;-66
2023/03/27 08:27:47;;;;;;;3.70;0.60;;;8.00;99.90;;;;;;5047867;28;20512;-66
2023/03/27 08:30:13;;;;;;;5.07;0.80;;;8.10;99.90;;;;;;5047632;28;20033;-67
2023/03/27 08:32:40;;;;;;;5.22;1.75;;;8.20;99.90;;;;;;5048157;28;20531;-67
2023/03/27 08:35:07;;;;;;;6.38;0.98;;;8.40;99.90;;;;;;5048142;28;20154;-66
2023/03/27 08:37:34;;;;;;;3.95;0.93;;;8.50;99.90;;;;;;5047306;28;20558;-67
2023/03/27 08:40:00;;;;;;;9.15;1.42;;;8.80;99.90;;;;;;5051767;28;20068;-67
2023/03/27 08:42:35;;;;;;;6.30;1.05;;;8.50;99.90;;;;;;5053238;28;20041;-66
2023/03/27 08:45:35;;;;;;;5.20;1.00;;;7.80;99.90;;;;;;5052529;28;20045;-67
2023/03/27 08:48:11;;;;;;;6.57;1.08;;;7.30;99.90;;;;;;5052854;28;20048;-66
2023/03/27 08:50:48;;;;;;;4.90;0.82;;;7.00;99.90;;;;;;5051247;28;20040;-67
2023/03/27 08:53:38;;;;;;;7.32;1.67;;;6.70;99.90;;;;;;5084861;28;20102;-67
2023/03/27 08:56:04;;;;;;;3.13;1.33;;;6.50;99.90;;;;;;5027048;28;20134;-67
2023/03/27 08:58:31;;;;;;;4.43;1.77;;;6.20;99.90;;;;;;5052524;28;20380;-66
2023/03/27 09:01:10;;;;;;;6.63;2.03;;;5.80;99.90;;;;;;5051086;28;20116;-66
2023/03/27 09:03:51;;;;;;;3.55;1.30;;;5.70;99.90;;;;;;5052358;28;20053;-67
2023/03/27 09:06:22;;;;;;;7.68;1.40;;;6.60;99.90;;;;;;5051791;28;20494;-66
2023/03/27 09:09:12;;;;;;;9.23;1.48;;;7.50;99.90;;;;;;5053848;28;20061;-67
2023/03/27 09:11:47;;;;;;;;;;;8.30;99.90;;;;;;5053652;28;20105;-67
2023/03/27 09:14:50;;;;;;;3.65;1.25;;;9.00;99.90;;;;;;5051499;28;19959;-67
2023/03/27 09:17:38;;;;;;;3.42;0.80;;;9.60;99.90;;;;;;5032227;28;20055;-67
2023/03/27 09:20:11;;;;;;;3.38;1.00;;;9.90;99.90;;;;;;5065241;28;20466;-67
2023/03/27 09:22:44;;;;;;;6.43;0.98;;;10.20;99.90;;;;;;5032140;28;20506;-67
2023/03/27 09:25:22;;;;;;;5.18;0.90;;;10.50;99.90;;;;;;5033653;28;20389;-67
2023/03/27 09:27:50;;;;;;;5.88;1.10;;;10.80;99.90;;;;;;5064829;28;20052;-67
2023/03/27 09:30:28;;;;;;;4.10;1.45;;;11.10;99.90;;;;;;5032253;28;20057;-67
2023/03/27 09:33:04;;;;;;;6.40;1.40;;;11.20;99.90;;;;;;5032796;28;20102;-68
2023/03/27 09:35:31;;;;;;;4.78;0.85;;;11.20;99.90;;;;;;5031971;28;20045;-67
2023/03/27 09:38:08;;;;;;;5.97;1.02;;;11.20;99.90;;;;;;5032171;28;20056;-68
2023/03/27 09:40:58;;;;;;;5.10;1.30;;;11.60;99.90;;;;;;5064644;28;20056;-67
2023/03/27 09:43:34;;;;;;;7.88;1.73;;;11.90;99.90;;;;;;5033285;28;20041;-67
2023/03/27 09:46:01;;;;;;;6.70;1.52;;;11.30;99.90;;;;;;5033031;28;20050;-68
2023/03/27 09:48:43;;;;;;;7.78;1.27;;;10.30;99.90;;;;;;5036143;28;20056;-67
2023/03/27 09:51:39;;;;;;;6.68;1.02;;;9.40;99.90;;;;;;5053077;28;20086;-67
2023/03/27 09:54:05;;;;;;;7.10;1.00;;;9.10;99.90;;;;;;5051055;28;20049;-66
2023/03/27 09:56:38;;;;;;;1.92;0.70;;;8.60;99.90;;;;;;5053010;28;20425;-67
2023/03/27 09:59:12;;;;;;;3.60;0.65;;;8.00;99.90;;;;;;5051542;28;20124;-64
2023/03/27 10:01:46;;;;;;;3.40;0.65;;;8.10;99.90;;;;;;5052282;28;20536;-66
2023/03/27 10:04:16;;;;;;;4.28;0.70;;;8.90;99.90;;;;;;5051730;28;20041;-66
2023/03/27 10:06:43;;;;;;;;;;;9.60;99.90;;;;;;5051780;28;20049;-66
2023/03/27 10:09:36;;;;;;;2.30;0.60;;;10.30;99.90;;;;;;5050627;28;20369;-67
2023/03/27 10:12:18;;;;;;;2.78;0.80;;;10.90;99.90;;;;;;5050147;28;20144;-66
2023/03/27 10:14:47;;;;;;;2.72;0.77;;;11.20;99.90;;;;;;5050960;28;20124;-67
2023/03/27 10:17:36;;;;;;;3.67;0.83;;;11.50;99.90;;;;;;5052700;28;20055;-67
2023/03/27 10:20:16;;;;;;;2.15;0.75;;;11.70;99.90;;;;;;5052476;28;20091;-67
2023/03/27 10:22:58;;;;;;;2.50;0.95;;;11.90;99.90;;;;;;5050481;28;20060;-66
2023/03/27 10:25:38;;;;;;;3.00;0.70;;;12.30;99.90;;;;;;5051039;28;20053;-65
2023/03/27 10:28:17;;;;;;;4.78;0.82;;;12.00;99.90;;;;;;5051424;28;20041;-67
2023/03/27 10:30:43;;;;;;;4.35;1.10;;;11.80;99.90;;;;;;5050649;28;20051;-67
2023/03/27 10:33:09;;;;;;;2.20;0.70;;;11.70;99.90;;;;;;5051899;28;20075;-66
2023/03/27 10:35:44;;;;;;;3.15;0.80;;;11.60;99.90;;;;;;5051631;28;20072;-67
2023/03/27 10:38:13;;;;;;;3.20;0.70;;;11.80;99.90;;;;;;5050966;28;20107;-67
2023/03/27 10:40:42;;;;;;;4.90;1.10;;;11.80;99.90;;;;;;5052272;28;20132;-65
2023/03/27 10:43:15;;;;;;;3.03;0.70;;;11.40;99.90;;;;;;5049498;28;20045;-65
2023/03/27 10:45:55;;;;;;;5.03;1.25;;;11.40;99.90;;;;;;5051353;28;20123;-65
2023/03/27 10:48:24;;;;;;;5.75;0.98;;;12.20;99.90;;;;;;5049024;28;20116;-66
2023/03/27 10:50:56;;;;;;;4.70;1.05;;;12.70;99.90;;;;;;5033674;28;20116;-64
2023/03/27 10:53:40;;;;;;;3.70;0.90;;;12.70;99.90;;;;;;5031029;28;20037;-66
2023/03/27 10:56:15;;;;;;;3.40;0.90;;;12.90;99.90;;;;;;5031614;28;20038;-65
2023/03/27 10:58:57;;;;;;;4.70;1.08;;;13.20;99.90;;;;;;5031238;28;20136;-66
2023/03/27 11:01:40;;;;;;;3.78;0.70;;;13.00;99.90;;;;;;5033190;28;20052;-66
2023/03/27 11:04:43;;;;;;;6.03;0.90;;;12.10;99.90;;;;;;5049812;28;20052;-67
2023/03/27 11:07:19;;;;;;;3.33;0.90;;;10.90;99.90;;;;;;5049962;28;20045;-66
2023/03/27 11:10:10;;;;;;;6.78;1.10;;;10.90;99.90;;;;;;5051668;28;20037;-66
2023/03/27 11:12:41;;;;;;;4.13;1.05;;;11.20;99.90;;;;;;5049868;28;20033;-65
2023/03/27 11:15:20;;;;;;;6.03;1.25;;;10.90;99.90;;;;;;5033740;28;20600;-65
2023/03/27 11:18:20;;;;;;;5.32;1.25;;;10.20;99.90;;;;;;5051075;28;20445;-65
2023/03/27 11:20:58;;;;;;;8.13;1.20;;;9.70;99.90;;;;;;5051100;28;20053;-66
2023/03/27 11:23:48;;;;;;;3.85;0.70;;;10.00;99.90;;;;;;5049924;28;20069;-66
2023/03/27 11:26:15;;;;;;;4.45;1.10;;;10.80;99.90;;;;;;5050303;28;20089;-66
2023/03/27 11:29:02;;;;;;;3.78;1.27;;;11.60;99.90;;;;;;5047298;28;20029;-66
2023/03/27 11:31:47;;;;;;;4.10;0.90;;;12.50;99.90;;;;;;5031178;28;20036;-66
2023/03/27 11:34:37;;;;;;;5.22;1.00;;;12.70;99.90;;;;;;5031034;28;20423;-65
2023/03/27 11:37:04;;;;;;;;;;;11.90;99.90;;;;;;5063367;28;20099;-66
2023/03/27 11:39:52;;;;;;;4.65;1.08;;;10.80;99.90;;;;;;5012601;28;19964;-66
2023/03/27 11:42:31;;;;;;;8.45;1.67;;;10.20;99.90;;;;;;5029804;28;20045;-65
2023/03/27 11:44:57;;;;;;;5.70;1.13;;;10.70;99.90;;;;;;5031040;28;20041;-66
2023/03/27 11:47:41;;;;;;;7.20;1.58;;;11.00;99.90;;;;;;5030452;28;20042;-66
2023/03/27 11:50:19;;;;;;;7.47;1.70;;;11.40;99.90;;;;;;5046840;28;20040;-66
2023/03/27 11:53:11;;;;;;;5.55;0.80;;;11.50;99.90;;;;;;5048800;28;20052;-64
2023/03/27 11:55:59;;;;;;;3.85;0.77;;;11.20;99.90;;;;;;5049288;28;20052;-65
2023/03/27 11:58:42;;;;;;;9.65;1.27;;;11.00;99.90;;;;;;5049528;28;20040;-66
2023/03/27 12:01:26;;;;;;;7.47;1.58;;;11.00;99.90;;;;;;5048675;28;20032;-66
2023/03/27 12:04:05;;;;;;;6.65;1.48;;;10.60;99.90;;;;;;5049217;28;20045;-66
2023/03/27 12:06:37;;;;;;;4.88;1.02;;;10.20;99.90;;;;;;5041748;28;20054;-67
2023/03/27 12:09:22;;;;;;;7.47;1.45;;;10.80;99.90;;;;;;5030502;28;20478;-66
2023/03/27 12:12:03;;;;;;;5.25;1.20;;;11.50;99.90;;;;;;5029574;28;20045;-66
2023/03/27 12:14:53;;;;;;;7.35;1.20;;;11.80;99.90;;;;;;5030197;28;20073;-65
2023/03/27 12:17:57;;;;;;;8.77;1.20;;;11.60;99.70;;;;;;5029180;28;20494;-66
2023/03/27 12:20:47;;;;;;;5.70;1.40;;;11.50;99.90;;;;;;5029183;28;20084;-65
2023/03/27 12:23:43;;;;;;;3.78;1.55;;;11.20;99.90;;;;;;5029092;28;20765;-66
2023/03/27 12:26:23;;;;;;;6.15;0.95;;;10.90;99.70;;;;;;5027022;28;20133;-65
2023/03/27 12:29:16;;;;;;;3.93;1.20;;;10.60;99.90;;;;;;5028850;28;20091;-66
2023/03/27 12:32:07;;;;;;;3.60;0.82;;;10.30;99.90;;;;;;5044928;28;20378;-64
2023/03/27 12:34:53;;;;;;;4.43;1.00;;;10.20;99.90;;;;;;5031800;28;20091;-67
2023/03/27 12:37:39;;;;;;;5.88;1.10;;;10.20;99.90;;;;;;5049132;28;20055;-67
2023/03/27 12:40:25;;;;;;;8.55;1.52;;;10.10;99.90;;;;;;5048960;28;20409;-66
2023/03/27 12:42:52;;;;;;;6.90;1.00;;;10.30;99.90;;;;;;5048140;28;20076;-67
2023/03/27 12:45:18;;;;;;;4.00;1.00;;;10.00;99.90;;;;;;5049161;28;20048;-66
2023/03/27 12:48:04;;;;;;;4.45;1.15;;;9.70;99.90;;;;;;5049873;28;20044;-66
2023/03/27 12:50:34;;;;;;;9.90;1.50;;;9.90;99.90;;;;;;5045150;28;20036;-67
2023/03/27 12:53:04;;;;;;;6.13;1.45;;;10.20;99.90;;;;;;5029015;28;20040;-67
2023/03/27 12:55:32;;;;;;;10.23;1.27;;;10.40;99.90;;;;;;5029005;28;20042;-67
2023/03/27 12:58:01;;;;;;;3.38;0.88;;;10.70;99.90;;;;;;5048208;28;20057;-66
2023/03/27 13:00:27;;;;;;;5.55;1.10;;;10.80;99.90;;;;;;5048270;28;20115;-66
2023/03/27 13:03:08;;;;;;;4.32;1.45;;;10.40;98.90;;;;;;5047951;28;20045;-66
2023/03/27 13:05:43;;;;;;;4.88;1.40;;;9.90;99.20;;;;;;5048758;28;20052;-65
2023/03/27 13:08:40;;;;;;;4.20;0.93;;;9.70;99.20;;;;;;5049467;28;20496;-64
2023/03/27 13:11:26;;;;;;;7.60;1.30;;;9.40;99.90;;;;;;5047938;28;20060;-65
2023/03/27 13:14:20;;;;;;;6.13;1.25;;;9.50;99.90;;;;;;5048832;28;20377;-66
2023/03/27 13:17:10;;;;;;;10.52;2.85;;;9.70;99.90;;;;;;5037592;28;20489;-66
2023/03/27 13:19:36;;;;;;;;;;;9.40;99.90;;;;;;5034290;28;20095;-65
2023/03/27 13:22:17;;;;;;;5.60;1.40;;;9.00;99.90;;;;;;5045175;28;19917;-64
2023/03/27 13:24:53;;;;;;;4.57;1.05;;;8.90;99.90;;;;;;5034233;28;20060;-63
2023/03/27 13:27:49;;;;;;;4.75;1.08;;;9.30;99.90;;;;;;5033294;28;20067;-65